Time;durP1;ratioP1;P1;durP2;ratioP2;P2;SDS_P1;SDS_P2;PMS_P1;PMS_P2;Temp;Humidity;BMP_temperature;BMP_pressure;BME280_temperature;BME280_humidity;BME280_pressure;Samples;Min_cycle;Max_cycle;Signal;HPM_P1;HPM_P2
2024/02/23 00:01:36;;;;;;;2.00;0.50;;;10.20;95.80;;;;;;5082650;28;20097;-69
2024/02/23 00:04:02;;;;;;;2.58;0.60;;;10.20;95.70;;;;;;5077720;28;20022;-69
2024/02/23 00:06:28;;;;;;;6.40;0.75;;;10.20;95.70;;;;;;5082955;28;20622;-69
2024/02/23 00:08:54;;;;;;;3.22;0.80;;;10.20;95.60;;;;;;5060026;28;20115;-69
2024/02/23 00:11:23;;;;;;;3.80;0.45;;;10.20;95.80;;;;;;5078113;28;20041;-69
2024/02/23 00:13:49;;;;;;;1.77;0.40;;;10.20;96.20;;;;;;5074056;28;20036;-68
2024/02/23 00:16:14;;;;;;;4.93;0.68;;;10.10;96.00;;;;;;5080736;28;20085;-69
2024/02/23 00:18:40;;;;;;;5.35;0.52;;;10.10;96.10;;;;;;5064499;28;20483;-69
2024/02/23 00:21:06;;;;;;;7.18;0.70;;;10.10;96.10;;;;;;5078622;28;20033;-69
2024/02/23 00:23:32;;;;;;;3.50;1.00;;;10.10;96.20;;;;;;5065267;28;20119;-69
2024/02/23 00:25:57;;;;;;;2.40;0.65;;;10.10;95.90;;;;;;5079659;28;20111;-68
2024/02/23 00:28:23;;;;;;;2.97;0.77;;;10.10;95.90;;;;;;5073513;28;20061;-68
2024/02/23 00:30:49;;;;;;;7.00;0.75;;;10.10;95.70;;;;;;5073971;28;20365;-69
2024/02/23 00:33:14;;;;;;;2.70;0.70;;;10.10;95.90;;;;;;5069663;28;20036;-70
2024/02/23 00:35:40;;;;;;;4.35;0.80;;;10.10;95.80;;;;;;5078262;28;20056;-69
2024/02/23 00:38:07;;;;;;;1.92;0.40;;;10.10;95.70;;;;;;5076565;28;20081;-69
2024/02/23 00:40:33;;;;;;;3.45;0.55;;;10.10;96.00;;;;;;5074031;28;20119;-68
2024/02/23 00:43:00;;;;;;;6.85;1.02;;;10.10;95.70;;;;;;5075513;28;20111;-69
2024/02/23 00:45:25;;;;;;;3.78;0.75;;;10.10;95.80;;;;;;5084429;28;20395;-68
2024/02/23 00:47:51;;;;;;;4.32;0.82;;;10.10;95.80;;;;;;5069711;28;20028;-69
2024/02/23 00:50:17;;;;;;;6.53;0.70;;;10.10;95.80;;;;;;5081886;28;20037;-68
2024/02/23 00:52:43;;;;;;;4.13;0.80;;;10.10;95.50;;;;;;5085229;28;20036;-69
2024/02/23 00:55:08;;;;;;;2.97;0.60;;;10.10;95.70;;;;;;5080902;28;20036;-69
2024/02/23 00:57:35;;;;;;;1.90;0.32;;;10.10;95.60;;;;;;5083873;28;20032;-68
2024/02/23 01:00:03;;;;;;;4.82;0.70;;;10.10;95.40;;;;;;5081369;28;20185;-69
2024/02/23 01:02:29;;;;;;;8.20;0.93;;;10.10;95.50;;;;;;5087315;28;20462;-68
2024/02/23 01:04:56;;;;;;;4.75;0.55;;;10.10;95.30;;;;;;5083167;28;20520;-69
2024/02/23 01:07:22;;;;;;;3.55;0.40;;;10.10;95.40;;;;;;5069367;28;20086;-68
2024/02/23 01:09:48;;;;;;;2.42;0.40;;;10.10;95.60;;;;;;5077941;28;20050;-69
2024/02/23 01:12:13;;;;;;;2.75;0.50;;;10.10;95.60;;;;;;5065342;28;20382;-69
2024/02/23 01:14:39;;;;;;;3.92;0.38;;;10.10;95.60;;;;;;5083556;28;20028;-68
2024/02/23 01:17:05;;;;;;;1.88;0.32;;;10.00;95.50;;;;;;5085019;28;20033;-68
2024/02/23 01:19:30;;;;;;;2.15;0.40;;;10.00;95.60;;;;;;5087262;28;20028;-68
2024/02/23 01:21:59;;;;;;;2.67;0.25;;;9.90;96.10;;;;;;5081112;28;20074;-68
2024/02/23 01:24:27;;;;;;;3.63;0.40;;;9.90;96.10;;;;;;5085127;28;20481;-68
2024/02/23 01:26:54;;;;;;;;;;;9.80;96.10;;;;;;5060350;28;20041;-68
2024/02/23 01:29:19;;;;;;;2.75;0.32;;;9.80;96.20;;;;;;5080169;28;19966;-68
2024/02/23 01:31:45;;;;;;;1.13;0.20;;;9.80;96.20;;;;;;5082833;28;20031;-68
2024/02/23 01:34:11;;;;;;;0.45;0.25;;;9.70;96.40;;;;;;5075733;28;20036;-67
2024/02/23 01:36:36;;;;;;;0.43;0.20;;;9.70;96.60;;;;;;5081694;28;20050;-67
2024/02/23 01:39:03;;;;;;;0.30;0.30;;;9.70;96.90;;;;;;5075932;28;20868;-68
2024/02/23 01:41:29;;;;;;;0.20;0.13;;;9.60;97.00;;;;;;5071011;28;20047;-67
2024/02/23 01:43:54;;;;;;;0.80;0.30;;;9.60;97.20;;;;;;5075121;28;20036;-68
2024/02/23 01:46:21;;;;;;;0.40;0.10;;;9.60;97.50;;;;;;5081131;28;20028;-67
2024/02/23 01:48:46;;;;;;;0.80;0.20;;;9.60;97.90;;;;;;5077290;28;20027;-67
2024/02/23 01:51:12;;;;;;;0.32;0.10;;;9.40;98.40;;;;;;5079549;28;20036;-67
2024/02/23 01:53:38;;;;;;;1.05;0.30;;;9.40;99.50;;;;;;5077336;28;20040;-67
2024/02/23 01:56:05;;;;;;;0.43;0.20;;;9.30;99.90;;;;;;5080657;28;20031;-67
2024/02/23 01:58:33;;;;;;;0.10;0.10;;;9.20;99.90;;;;;;5060013;28;20540;-68
2024/02/23 02:00:58;;;;;;;1.67;0.10;;;9.20;99.90;;;;;;5073733;28;20104;-67
2024/02/23 02:03:24;;;;;;;0.05;0.05;;;8.90;99.90;;;;;;5077559;28;20103;-67
2024/02/23 02:05:51;;;;;;;0.13;0.00;;;8.80;99.90;;;;;;5077193;28;20028;-68
2024/02/23 02:08:17;;;;;;;2.33;0.20;;;8.70;99.90;;;;;;5065553;28;20036;-67
2024/02/23 02:10:43;;;;;;;0.00;0.00;;;8.60;99.90;;;;;;5074401;28;20253;-68
2024/02/23 02:13:08;;;;;;;0.10;0.00;;;8.50;99.90;;;;;;5079375;28;20040;-68
2024/02/23 02:15:34;;;;;;;0.15;0.03;;;8.40;99.90;;;;;;5088289;28;20024;-67
2024/02/23 02:18:00;;;;;;;0.45;0.00;;;8.40;99.90;;;;;;5077372;28;20133;-68
2024/02/23 02:20:27;;;;;;;0.00;0.00;;;8.30;99.90;;;;;;5080331;28;20404;-68
2024/02/23 02:22:53;;;;;;;0.00;0.00;;;8.20;99.90;;;;;;5083414;28;20035;-68
2024/02/23 02:25:18;;;;;;;0.00;0.00;;;8.00;99.90;;;;;;5076546;28;20036;-68
2024/02/23 02:27:45;;;;;;;0.00;0.00;;;7.90;99.90;;;;;;5076742;28;20035;-67
2024/02/23 02:30:12;;;;;;;1.92;0.10;;;7.90;99.90;;;;;;5076869;28;20128;-68
2024/02/23 02:32:37;;;;;;;0.10;0.00;;;7.80;99.90;;;;;;5062060;28;20036;-67
2024/02/23 02:35:04;;;;;;;0.00;0.00;;;7.70;99.90;;;;;;5075182;28;20043;-67
2024/02/23 02:37:29;;;;;;;0.00;0.00;;;7.70;99.90;;;;;;5081885;28;20113;-67
2024/02/23 02:39:55;;;;;;;0.00;0.00;;;7.70;99.90;;;;;;5079113;28;20492;-67
2024/02/23 02:42:20;;;;;;;0.40;0.00;;;7.70;99.90;;;;;;5084768;28;20147;-67
2024/02/23 02:44:46;;;;;;;0.22;0.03;;;7.60;99.90;;;;;;5081768;28;20024;-67
2024/02/23 02:47:11;;;;;;;0.00;0.00;;;7.60;99.90;;;;;;5073972;28;20036;-67
2024/02/23 02:49:39;;;;;;;0.05;0.05;;;7.60;99.90;;;;;;5063601;28;20092;-67
2024/02/23 02:52:04;;;;;;;0.10;0.10;;;7.60;99.90;;;;;;5083046;28;20055;-67
2024/02/23 02:54:30;;;;;;;0.10;0.10;;;7.50;99.90;;;;;;5067332;28;20048;-67
2024/02/23 02:56:56;;;;;;;0.20;0.10;;;7.50;99.90;;;;;;5082364;28;20555;-67
2024/02/23 02:59:23;;;;;;;0.40;0.15;;;7.50;99.90;;;;;;5078593;28;20044;-67
2024/02/23 03:01:48;;;;;;;0.10;0.00;;;7.50;99.90;;;;;;5083899;28;20032;-67
2024/02/23 03:04:14;;;;;;;0.52;0.10;;;7.50;99.90;;;;;;5061830;28;20105;-68
2024/02/23 03:06:40;;;;;;;0.00;0.00;;;7.50;99.90;;;;;;5080570;28;20032;-67
2024/02/23 03:09:06;;;;;;;0.10;0.10;;;7.50;99.90;;;;;;5075695;28;20040;-67
2024/02/23 03:11:32;;;;;;;1.75;0.40;;;7.50;99.90;;;;;;5082101;28;20477;-67
2024/02/23 03:13:58;;;;;;;1.85;0.40;;;7.40;99.90;;;;;;5078563;28;20115;-67
2024/02/23 03:16:25;;;;;;;0.40;0.20;;;7.50;99.90;;;;;;5084185;28;20093;-67
2024/02/23 03:18:54;;;;;;;0.70;0.35;;;7.30;99.90;;;;;;5059208;28;20032;-67
2024/02/23 03:21:20;;;;;;;1.50;0.25;;;7.30;99.90;;;;;;5082202;28;20064;-68
2024/02/23 03:23:46;;;;;;;3.95;0.45;;;7.20;99.90;;;;;;5080232;28;20048;-68
2024/02/23 03:26:11;;;;;;;2.30;0.30;;;7.20;99.90;;;;;;5077954;28;20058;-68
2024/02/23 03:28:37;;;;;;;1.75;0.22;;;7.20;99.90;;;;;;5073865;28;20089;-67
2024/02/23 03:31:03;;;;;;;2.97;0.38;;;7.20;99.90;;;;;;5077944;28;20515;-67
2024/02/23 03:33:28;;;;;;;3.47;0.50;;;7.20;99.90;;;;;;5077779;28;20478;-67
2024/02/23 03:35:55;;;;;;;0.65;0.43;;;7.20;99.90;;;;;;5080736;28;20036;-67
2024/02/23 03:38:21;;;;;;;3.05;0.50;;;7.20;99.90;;;;;;5077948;28;20055;-67
2024/02/23 03:40:46;;;;;;;0.88;0.38;;;7.20;99.90;;;;;;5082385;28;20592;-67
2024/02/23 03:43:12;;;;;;;0.73;0.57;;;7.20;99.90;;;;;;5077461;28;20591;-68
2024/02/23 03:45:37;;;;;;;0.40;0.40;;;7.10;99.90;;;;;;5083571;28;20028;-67
2024/02/23 03:48:04;;;;;;;1.85;0.30;;;7.20;99.90;;;;;;5080116;28;20040;-67
2024/02/23 03:50:30;;;;;;;4.88;0.60;;;7.20;99.90;;;;;;5080014;28;20032;-67
2024/02/23 03:52:56;;;;;;;1.27;0.40;;;7.10;99.90;;;;;;5079353;28;20025;-67
2024/02/23 03:55:22;;;;;;;1.63;0.57;;;7.10;99.90;;;;;;5077355;28;20055;-67
2024/02/23 03:57:47;;;;;;;1.33;0.60;;;7.10;99.90;;;;;;5079803;28;20034;-67
2024/02/23 04:00:14;;;;;;;3.28;0.68;;;7.10;99.90;;;;;;5064314;28;20029;-67
2024/02/23 04:02:40;;;;;;;1.40;0.45;;;7.10;99.90;;;;;;5078260;28;20063;-68
2024/02/23 04:05:06;;;;;;;1.50;0.70;;;7.10;99.90;;;;;;5062355;28;20059;-68
2024/02/23 04:07:31;;;;;;;2.53;0.60;;;7.20;99.90;;;;;;5081034;28;20143;-67
2024/02/23 04:09:57;;;;;;;2.00;0.63;;;7.20;99.90;;;;;;5082698;28;20716;-68
2024/02/23 04:12:23;;;;;;;2.75;0.60;;;7.20;99.90;;;;;;5075341;28;20054;-68
2024/02/23 04:14:48;;;;;;;1.92;0.50;;;7.20;99.90;;;;;;5079447;28;20028;-68
2024/02/23 04:17:14;;;;;;;0.88;0.50;;;7.20;99.90;;;;;;5085606;28;20611;-68
2024/02/23 04:19:43;;;;;;;8.07;0.90;;;7.20;99.90;;;;;;5085501;28;20119;-68
2024/02/23 04:22:12;;;;;;;2.40;0.82;;;7.20;99.90;;;;;;5069237;28;20482;-67
2024/02/23 04:24:39;;;;;;;5.90;0.70;;;7.20;99.90;;;;;;5084247;28;20083;-67
2024/02/23 04:27:05;;;;;;;3.70;0.70;;;7.20;99.90;;;;;;5080287;28;20571;-67
2024/02/23 04:29:32;;;;;;;7.47;0.85;;;7.20;99.90;;;;;;5086313;28;20103;-69
2024/02/23 04:32:01;;;;;;;4.43;1.00;;;7.20;99.90;;;;;;5089483;28;20042;-67
2024/02/23 04:34:27;;;;;;;7.68;1.08;;;7.30;99.90;;;;;;5086962;28;20139;-68
2024/02/23 04:36:52;;;;;;;8.38;0.90;;;7.30;99.90;;;;;;5067010;28;20028;-67
2024/02/23 04:39:18;;;;;;;2.10;0.70;;;7.20;99.90;;;;;;5084693;28;20120;-68
2024/02/23 04:41:43;;;;;;;5.13;0.90;;;7.30;99.90;;;;;;5086443;28;23030;-68
2024/02/23 04:44:09;;;;;;;3.15;0.52;;;7.40;99.90;;;;;;5075520;28;20037;-68
2024/02/23 04:46:34;;;;;;;2.33;0.90;;;7.30;99.90;;;;;;5083543;28;20036;-68
2024/02/23 04:49:01;;;;;;;4.60;0.57;;;7.40;99.90;;;;;;5082909;28;20036;-68
2024/02/23 04:51:27;;;;;;;2.78;0.60;;;7.40;99.90;;;;;;5083306;28;20027;-68
2024/02/23 04:53:52;;;;;;;5.60;1.08;;;7.40;99.90;;;;;;5084426;28;20039;-67
2024/02/23 04:56:18;;;;;;;8.52;0.77;;;7.40;99.90;;;;;;5083647;28;20040;-68
2024/02/23 04:58:44;;;;;;;3.97;0.70;;;7.40;99.90;;;;;;5079997;28;20405;-68
2024/02/23 05:01:10;;;;;;;5.05;0.80;;;7.40;99.90;;;;;;5072043;28;20730;-67
2024/02/23 05:03:36;;;;;;;4.00;0.77;;;7.40;99.90;;;;;;5085335;28;20395;-68
2024/02/23 05:06:03;;;;;;;10.35;1.17;;;7.40;99.90;;;;;;5071395;28;20040;-68
2024/02/23 05:08:30;;;;;;;3.28;0.57;;;7.40;99.90;;;;;;5085218;28;20431;-68
2024/02/23 05:10:56;;;;;;;3.80;0.70;;;7.40;99.90;;;;;;5083144;28;20032;-67
2024/02/23 05:13:22;;;;;;;3.60;0.73;;;7.40;99.90;;;;;;5083252;28;20045;-68
2024/02/23 05:15:47;;;;;;;3.85;0.50;;;7.40;99.90;;;;;;5078896;28;20024;-67
2024/02/23 05:18:13;;;;;;;1.65;0.60;;;7.40;99.90;;;;;;5081217;28;20031;-68
2024/02/23 05:20:38;;;;;;;2.35;0.68;;;7.50;99.90;;;;;;5069950;28;20031;-68
2024/02/23 05:23:04;;;;;;;3.30;0.50;;;7.40;99.90;;;;;;5085611;28;20032;-67
2024/02/23 05:25:30;;;;;;;0.63;0.50;;;7.40;99.90;;;;;;5084601;28;20041;-67
2024/02/23 05:27:56;;;;;;;3.70;0.80;;;7.40;99.90;;;;;;5081922;28;20108;-67
2024/02/23 05:30:21;;;;;;;1.98;0.50;;;7.40;99.90;;;;;;5083319;28;20028;-68
2024/02/23 05:32:48;;;;;;;9.32;0.70;;;7.40;99.70;;;;;;5078903;28;20032;-67
2024/02/23 05:35:13;;;;;;;3.17;0.55;;;7.40;99.40;;;;;;5081530;28;20032;-67
2024/02/23 05:37:40;;;;;;;3.63;0.40;;;7.40;99.30;;;;;;5067742;28;20034;-67
2024/02/23 05:40:07;;;;;;;1.77;0.60;;;7.40;99.40;;;;;;5077429;28;20052;-67
2024/02/23 05:42:32;;;;;;;6.05;0.70;;;7.40;99.20;;;;;;5076260;28;20017;-67
2024/02/23 05:44:58;;;;;;;4.93;0.45;;;7.40;99.30;;;;;;5082589;28;20124;-68
2024/02/23 05:47:24;;;;;;;2.47;0.70;;;7.40;99.20;;;;;;5083693;28;20036;-67
2024/02/23 05:49:50;;;;;;;4.07;0.85;;;7.40;99.00;;;;;;5084335;28;20040;-68
2024/02/23 05:52:16;;;;;;;0.75;0.50;;;7.40;99.10;;;;;;5081107;28;20107;-67
2024/02/23 05:54:42;;;;;;;1.35;0.52;;;7.40;99.10;;;;;;5077613;28;20049;-67
2024/02/23 05:57:08;;;;;;;3.72;0.50;;;7.40;99.00;;;;;;5081717;28;20032;-67
2024/02/23 05:59:33;;;;;;;3.88;0.50;;;7.40;99.20;;;;;;5075945;28;20043;-68
2024/02/23 06:01:59;;;;;;;3.58;0.70;;;7.40;99.00;;;;;;5080090;28;20039;-67
2024/02/23 06:04:25;;;;;;;5.88;0.90;;;7.40;98.90;;;;;;5063727;28;20119;-68
2024/02/23 06:06:50;;;;;;;5.40;0.57;;;7.50;99.30;;;;;;5074677;28;20032;-68
2024/02/23 06:09:16;;;;;;;2.97;0.50;;;7.40;98.90;;;;;;5080224;28;20021;-67
2024/02/23 06:11:42;;;;;;;4.03;0.50;;;7.40;99.00;;;;;;5076816;28;20051;-67
2024/02/23 06:14:08;;;;;;;4.53;0.60;;;7.40;98.90;;;;;;5078671;28;20130;-67
2024/02/23 06:16:34;;;;;;;4.57;0.88;;;7.40;99.00;;;;;;5076596;28;20614;-69
2024/02/23 06:19:00;;;;;;;4.60;0.95;;;7.40;98.80;;;;;;5077998;28;20024;-68
2024/02/23 06:21:26;;;;;;;7.72;0.70;;;7.40;98.90;;;;;;5059682;28;20123;-67
2024/02/23 06:23:51;;;;;;;3.42;0.73;;;7.40;98.90;;;;;;5061618;28;20444;-68
2024/02/23 06:26:17;;;;;;;5.43;0.50;;;7.30;99.00;;;;;;5077937;28;20043;-67
2024/02/23 06:28:43;;;;;;;8.02;0.93;;;7.40;99.10;;;;;;5065770;28;21012;-67
2024/02/23 06:31:09;;;;;;;2.45;0.60;;;7.40;99.10;;;;;;5079646;28;20168;-68
2024/02/23 06:33:35;;;;;;;6.47;0.90;;;7.40;99.20;;;;;;5080049;28;20035;-67
2024/02/23 06:36:00;;;;;;;3.40;0.82;;;7.40;99.10;;;;;;5080539;28;20040;-67
2024/02/23 06:38:27;;;;;;;6.15;1.13;;;7.40;99.20;;;;;;5074424;28;20035;-68
2024/02/23 06:40:52;;;;;;;2.83;0.88;;;7.40;99.20;;;;;;5076987;28;20186;-67
2024/02/23 06:43:18;;;;;;;3.78;0.80;;;7.40;99.20;;;;;;5076450;28;20561;-67
2024/02/23 06:45:44;;;;;;;4.25;0.93;;;7.40;99.20;;;;;;5078330;28;20036;-68
2024/02/23 06:48:10;;;;;;;4.28;0.93;;;7.40;99.20;;;;;;5067999;28;20048;-68
2024/02/23 06:50:36;;;;;;;3.13;0.77;;;7.40;99.20;;;;;;5079292;28;20085;-68
2024/02/23 06:53:02;;;;;;;4.03;0.70;;;7.40;99.30;;;;;;5080962;28;20035;-67
2024/02/23 06:55:28;;;;;;;5.13;1.15;;;7.40;99.30;;;;;;5080381;28;20192;-67
2024/02/23 06:57:54;;;;;;;3.13;0.60;;;7.30;99.20;;;;;;5064271;28;20073;-68
2024/02/23 07:00:21;;;;;;;3.78;1.08;;;7.40;99.30;;;;;;5059102;28;20036;-68
2024/02/23 07:02:47;;;;;;;2.58;0.57;;;7.40;99.30;;;;;;5079052;28;20088;-68
2024/02/23 07:05:14;;;;;;;5.20;0.85;;;7.40;99.10;;;;;;5082384;28;20840;-68
2024/02/23 07:07:40;;;;;;;3.28;0.70;;;7.40;99.10;;;;;;5072857;28;20791;-68
2024/02/23 07:10:06;;;;;;;1.35;0.65;;;7.40;99.10;;;;;;5063447;28;20504;-67
2024/02/23 07:12:32;;;;;;;4.13;1.02;;;7.40;99.20;;;;;;5076323;28;20503;-68
2024/02/23 07:14:58;;;;;;;3.05;0.68;;;7.40;98.90;;;;;;5080913;28;20176;-67
2024/02/23 07:17:24;;;;;;;1.67;0.55;;;7.50;98.90;;;;;;5075766;28;20064;-68
2024/02/23 07:19:50;;;;;;;2.83;0.77;;;7.50;98.70;;;;;;5079528;28;20115;-69
2024/02/23 07:22:18;;;;;;;3.40;0.65;;;7.50;98.70;;;;;;5074696;28;20048;-68
2024/02/23 07:24:44;;;;;;;4.55;0.73;;;7.50;98.70;;;;;;5076103;28;20028;-68
2024/02/23 07:27:09;;;;;;;2.50;0.55;;;7.60;98.60;;;;;;5073319;28;20728;-69
2024/02/23 07:29:35;;;;;;;5.68;0.75;;;7.60;98.70;;;;;;5074436;28;20090;-68
2024/02/23 07:32:01;;;;;;;3.95;0.73;;;7.60;98.70;;;;;;5078040;28;20036;-68
2024/02/23 07:34:27;;;;;;;4.90;1.02;;;7.60;98.60;;;;;;5077588;28;20042;-68
2024/02/23 07:36:53;;;;;;;2.60;0.60;;;7.60;98.60;;;;;;5080801;28;20035;-68
2024/02/23 07:39:20;;;;;;;0.35;0.30;;;7.70;98.80;;;;;;5079480;28;20028;-68
2024/02/23 07:41:45;;;;;;;6.00;0.98;;;7.70;98.90;;;;;;5074674;28;20700;-68
2024/02/23 07:44:11;;;;;;;5.75;0.85;;;7.70;98.70;;;;;;5078863;28;20044;-68
2024/02/23 07:46:37;;;;;;;7.30;1.05;;;7.70;98.30;;;;;;5077114;28;20043;-68
2024/02/23 07:49:05;;;;;;;2.33;0.90;;;7.70;98.30;;;;;;5077400;28;20093;-68
2024/02/23 07:51:31;;;;;;;5.65;0.98;;;7.70;98.00;;;;;;5080097;28;20036;-68
2024/02/23 07:53:57;;;;;;;3.10;0.55;;;7.70;98.40;;;;;;5076495;28;20036;-68
2024/02/23 07:56:23;;;;;;;4.40;0.68;;;7.70;98.20;;;;;;5077542;28;20040;-68
2024/02/23 07:58:48;;;;;;;5.13;0.50;;;7.70;97.90;;;;;;5073781;28;20535;-68
2024/02/23 08:01:14;;;;;;;2.55;0.63;;;7.70;97.80;;;;;;5078546;28;20097;-68
2024/02/23 08:03:40;;;;;;;5.80;0.90;;;7.70;98.00;;;;;;5075708;28;20583;-68
2024/02/23 08:06:06;;;;;;;4.28;0.63;;;7.80;98.30;;;;;;5077566;28;20040;-68
2024/02/23 08:08:35;;;;;;;7.95;0.88;;;7.80;98.00;;;;;;5064916;28;20032;-68
2024/02/23 08:11:04;;;;;;;6.63;0.98;;;7.90;98.20;;;;;;5075050;28;20068;-69
2024/02/23 08:13:30;;;;;;;3.47;0.80;;;7.90;98.20;;;;;;5075384;28;20767;-68
2024/02/23 08:15:59;;;;;;;4.70;1.05;;;7.90;98.20;;;;;;5077667;28;20078;-68
2024/02/23 08:18:24;;;;;;;4.15;0.60;;;7.90;97.90;;;;;;5076943;28;20082;-68
2024/02/23 08:20:51;;;;;;;6.55;0.77;;;8.00;98.20;;;;;;5079028;28;20599;-68
2024/02/23 08:23:19;;;;;;;9.15;0.90;;;8.00;98.20;;;;;;5075416;28;20489;-67
2024/02/23 08:25:44;;;;;;;;;;;8.00;97.90;;;;;;5077617;28;20036;-69
2024/02/23 08:28:10;;;;;;;5.20;0.88;;;8.10;97.90;;;;;;5077950;28;19916;-69
2024/02/23 08:30:35;;;;;;;6.82;0.70;;;8.10;97.70;;;;;;5074622;28;20042;-68
2024/02/23 08:33:01;;;;;;;8.30;0.98;;;8.20;97.50;;;;;;5078799;28;21334;-69
2024/02/23 08:35:26;;;;;;;6.63;1.00;;;8.20;97.80;;;;;;5062077;28;20105;-68
2024/02/23 08:37:52;;;;;;;3.58;0.70;;;8.30;97.30;;;;;;5078102;28;20032;-68
2024/02/23 08:40:18;;;;;;;7.35;0.90;;;8.30;97.40;;;;;;5079107;28;20139;-68
2024/02/23 08:42:43;;;;;;;5.00;0.82;;;8.30;97.30;;;;;;5083080;28;20039;-69
2024/02/23 08:45:13;;;;;;;2.65;0.73;;;8.40;97.50;;;;;;5078888;28;20032;-68
2024/02/23 08:47:39;;;;;;;4.40;0.75;;;8.40;97.50;;;;;;5078223;28;20205;-68
2024/02/23 08:50:05;;;;;;;3.20;0.60;;;8.40;97.20;;;;;;5071438;28;20827;-68
2024/02/23 08:52:31;;;;;;;3.15;0.50;;;8.50;97.30;;;;;;5074317;28;20203;-68
2024/02/23 08:54:57;;;;;;;2.67;0.60;;;8.50;96.80;;;;;;5080076;28;20023;-68
2024/02/23 08:57:23;;;;;;;4.30;0.60;;;8.50;97.10;;;;;;5077922;28;20127;-68
2024/02/23 08:59:51;;;;;;;2.47;0.47;;;8.50;97.00;;;;;;5078364;28;20056;-68
2024/02/23 09:02:18;;;;;;;7.60;0.82;;;8.50;97.10;;;;;;5065509;28;20063;-68
2024/02/23 09:04:45;;;;;;;4.50;0.65;;;8.60;97.60;;;;;;5080584;28;20043;-68
2024/02/23 09:07:11;;;;;;;1.77;0.43;;;8.60;97.10;;;;;;5085990;28;20040;-68
2024/02/23 09:09:37;;;;;;;1.27;0.28;;;8.60;97.10;;;;;;5081750;28;20020;-69
2024/02/23 09:12:03;;;;;;;5.60;0.70;;;8.70;97.20;;;;;;5079486;28;20050;-69
2024/02/23 09:14:29;;;;;;;4.13;0.85;;;8.70;96.90;;;;;;5075472;28;20634;-68
2024/02/23 09:16:55;;;;;;;5.93;0.90;;;8.70;97.00;;;;;;5076620;28;20090;-68
2024/02/23 09:19:20;;;;;;;6.40;0.85;;;8.80;96.90;;;;;;5080800;28;20032;-68
2024/02/23 09:21:47;;;;;;;6.55;0.60;;;8.80;96.80;;;;;;5080350;28;20500;-68
2024/02/23 09:24:13;;;;;;;2.92;0.70;;;8.80;96.70;;;;;;5079753;28;20032;-68
2024/02/23 09:26:39;;;;;;;2.28;0.30;;;8.80;96.90;;;;;;5074935;28;20029;-69
2024/02/23 09:29:05;;;;;;;2.50;0.43;;;8.90;96.40;;;;;;5073958;28;20036;-68
2024/02/23 09:31:31;;;;;;;2.50;0.40;;;8.90;96.60;;;;;;5079949;28;20069;-68
2024/02/23 09:33:57;;;;;;;3.22;0.52;;;8.90;96.60;;;;;;5082146;28;20020;-68
2024/02/23 09:36:23;;;;;;;8.70;0.60;;;8.90;96.40;;;;;;5075973;28;20059;-69
2024/02/23 09:38:50;;;;;;;7.10;0.75;;;9.00;96.30;;;;;;5081780;28;20105;-68
2024/02/23 09:41:25;;;;;;;4.22;0.50;;;8.90;96.00;;;;;;5082882;28;20055;-68
2024/02/23 09:43:50;;;;;;;4.45;0.88;;;9.00;96.20;;;;;;5077787;28;20056;-69
2024/02/23 09:46:17;;;;;;;3.70;0.60;;;9.00;95.80;;;;;;5078015;28;20074;-68
2024/02/23 09:48:44;;;;;;;3.58;0.45;;;8.90;95.90;;;;;;5062900;28;20021;-68
2024/02/23 09:51:13;;;;;;;5.38;0.50;;;9.00;96.00;;;;;;5080030;28;20603;-68
2024/02/23 09:53:39;;;;;;;3.45;0.60;;;9.00;96.20;;;;;;5081564;28;20043;-68
2024/02/23 09:56:06;;;;;;;2.15;0.60;;;9.00;96.10;;;;;;5083029;28;20033;-68
2024/02/23 09:58:32;;;;;;;3.47;0.52;;;9.10;95.90;;;;;;5076565;28;20507;-69
2024/02/23 10:00:58;;;;;;;1.25;0.57;;;9.20;96.30;;;;;;5080168;28;20404;-68
2024/02/23 10:03:31;;;;;;;1.40;0.52;;;9.20;95.90;;;;;;5076802;28;20073;-68
2024/02/23 10:05:58;;;;;;;2.55;0.50;;;9.40;96.00;;;;;;5078834;28;20040;-68
2024/02/23 10:08:23;;;;;;;2.03;0.40;;;9.40;95.80;;;;;;5080137;28;20535;-69
2024/02/23 10:10:50;;;;;;;1.30;0.40;;;9.40;95.70;;;;;;5067624;28;20028;-69
2024/02/23 10:13:24;;;;;;;1.33;0.50;;;9.40;95.40;;;;;;5080270;28;20063;-69
2024/02/23 10:15:50;;;;;;;3.63;0.45;;;9.50;95.60;;;;;;5081567;28;20029;-69
2024/02/23 10:18:16;;;;;;;4.45;0.63;;;9.50;95.60;;;;;;5077256;28;20044;-69
2024/02/23 10:20:42;;;;;;;2.63;0.40;;;9.50;95.80;;;;;;5065812;28;20032;-68
2024/02/23 10:23:09;;;;;;;2.55;0.65;;;9.70;95.90;;;;;;5085516;28;20040;-68
2024/02/23 10:25:38;;;;;;;4.78;0.45;;;9.90;96.40;;;;;;5083474;28;20032;-69
2024/02/23 10:28:05;;;;;;;3.33;0.50;;;10.20;95.90;;;;;;5074047;28;20544;-69
2024/02/23 10:30:31;;;;;;;4.43;0.57;;;10.40;95.10;;;;;;5079684;28;20157;-68
2024/02/23 10:32:58;;;;;;;1.92;0.50;;;10.50;94.30;;;;;;5078228;28;20116;-68
2024/02/23 10:35:24;;;;;;;3.55;0.88;;;10.80;95.70;;;;;;5082683;28;20032;-69
2024/02/23 10:37:52;;;;;;;1.52;0.40;;;11.10;95.50;;;;;;5081608;28;20032;-69
2024/02/23 10:40:18;;;;;;;1.10;0.38;;;11.40;95.50;;;;;;5077492;28;20452;-69
2024/02/23 10:42:47;;;;;;;3.80;0.60;;;11.90;95.00;;;;;;5062576;28;20036;-69
2024/02/23 10:45:15;;;;;;;3.47;0.68;;;12.40;94.50;;;;;;5078856;28;20024;-69
2024/02/23 10:47:41;;;;;;;;;;;12.70;93.60;;;;;;5075266;28;20048;-69
2024/02/23 10:50:07;;;;;;;2.10;0.40;;;12.80;92.50;;;;;;5077937;28;20365;-69
2024/02/23 10:52:34;;;;;;;4.10;0.80;;;13.00;92.60;;;;;;5079067;28;20698;-69
2024/02/23 10:55:04;;;;;;;3.47;0.68;;;12.80;92.00;;;;;;5079266;28;20031;-69
2024/02/23 10:57:31;;;;;;;4.45;0.80;;;12.90;92.10;;;;;;5075122;28;20038;-69
2024/02/23 10:59:57;;;;;;;0.88;0.47;;;13.30;92.30;;;;;;5077686;28;20036;-69
2024/02/23 11:02:25;;;;;;;4.60;0.88;;;13.50;91.80;;;;;;5075479;28;20187;-69
2024/02/23 11:04:52;;;;;;;3.75;0.60;;;13.40;90.90;;;;;;5056470;28;20037;-68
2024/02/23 11:07:22;;;;;;;2.00;0.50;;;13.60;90.90;;;;;;5064070;28;20032;-69
2024/02/23 11:09:59;;;;;;;2.58;0.60;;;13.80;90.80;;;;;;5061690;28;20032;-68
2024/02/23 11:12:28;;;;;;;3.47;0.60;;;13.90;90.80;;;;;;5064576;28;20031;-69
2024/02/23 11:14:59;;;;;;;3.58;0.65;;;14.20;90.60;;;;;;5070552;28;20135;-69
2024/02/23 11:17:30;;;;;;;1.92;0.75;;;14.30;89.60;;;;;;5063381;28;20094;-69
2024/02/23 11:19:57;;;;;;;3.08;0.60;;;14.50;90.80;;;;;;5058716;28;20028;-69
2024/02/23 11:22:32;;;;;;;4.22;0.70;;;14.80;90.00;;;;;;5079566;28;20035;-68
2024/02/23 11:25:05;;;;;;;1.85;0.55;;;14.70;88.40;;;;;;5073641;28;20032;-69
2024/02/23 11:27:35;;;;;;;2.80;0.60;;;14.70;86.50;;;;;;5082444;28;20107;-69
2024/02/23 11:30:06;;;;;;;2.40;0.63;;;14.90;90.00;;;;;;5078883;28;20028;-69
2024/02/23 11:32:38;;;;;;;1.23;0.52;;;15.20;88.10;;;;;;5073575;28;20435;-69
2024/02/23 11:35:07;;;;;;;2.28;0.75;;;15.50;87.20;;;;;;5064373;28;20040;-70
2024/02/23 11:37:32;;;;;;;3.35;0.50;;;15.20;85.30;;;;;;5061064;28;20107;-69
2024/02/23 11:40:04;;;;;;;1.10;0.35;;;15.40;88.00;;;;;;5074527;28;20065;-70
2024/02/23 11:42:31;;;;;;;3.30;0.50;;;15.40;83.90;;;;;;5080593;28;20465;-69
2024/02/23 11:44:58;;;;;;;2.97;0.47;;;15.00;82.20;;;;;;5078697;28;20025;-69
2024/02/23 11:47:24;;;;;;;3.55;1.13;;;14.60;83.50;;;;;;5061190;28;20544;-69
2024/02/23 11:49:50;;;;;;;4.05;0.57;;;14.40;84.80;;;;;;5078418;28;20024;-69
2024/02/23 11:52:16;;;;;;;2.45;0.60;;;14.20;83.70;;;;;;5073989;28;20447;-69
2024/02/23 11:54:42;;;;;;;2.38;0.95;;;13.90;84.20;;;;;;5076545;28;20029;-68
2024/02/23 11:57:08;;;;;;;1.05;0.40;;;13.80;84.40;;;;;;5077408;28;20058;-68
2024/02/23 11:59:33;;;;;;;3.30;0.50;;;14.00;86.90;;;;;;5077920;28;20123;-68
2024/02/23 12:01:59;;;;;;;2.30;0.70;;;14.40;87.10;;;;;;5075345;28;20130;-68
2024/02/23 12:04:28;;;;;;;1.92;0.55;;;14.40;87.00;;;;;;5062289;28;20031;-68
2024/02/23 12:06:54;;;;;;;3.42;0.52;;;14.60;85.70;;;;;;5081001;28;20024;-68
2024/02/23 12:09:20;;;;;;;2.72;0.75;;;14.90;87.30;;;;;;5078108;28;20036;-68
2024/02/23 12:11:45;;;;;;;3.47;0.80;;;15.60;84.90;;;;;;5077875;28;20550;-68
2024/02/23 12:14:11;;;;;;;6.13;0.88;;;16.20;83.80;;;;;;5072532;28;20058;-69
2024/02/23 12:16:39;;;;;;;2.88;0.93;;;15.90;81.40;;;;;;5078358;28;20029;-68
2024/02/23 12:19:05;;;;;;;1.63;0.55;;;15.60;81.30;;;;;;5077426;28;20481;-70
2024/02/23 12:21:34;;;;;;;1.52;0.43;;;15.30;82.30;;;;;;5078672;28;20027;-68
2024/02/23 12:23:59;;;;;;;2.38;0.60;;;14.90;81.50;;;;;;5076487;28;20028;-68
2024/02/23 12:26:25;;;;;;;2.65;0.40;;;14.80;82.40;;;;;;5078911;28;20032;-68
2024/02/23 12:28:50;;;;;;;2.97;0.70;;;14.40;83.00;;;;;;5076700;28;20028;-68
2024/02/23 12:31:23;;;;;;;2.47;0.95;;;14.00;83.10;;;;;;5078425;28;20055;-68
2024/02/23 12:33:48;;;;;;;2.22;0.65;;;13.90;84.40;;;;;;5081699;28;20684;-68
2024/02/23 12:36:15;;;;;;;3.85;0.50;;;14.10;85.00;;;;;;5081391;28;20039;-68
2024/02/23 12:38:40;;;;;;;2.22;0.65;;;14.10;84.20;;;;;;5073884;28;20629;-68
2024/02/23 12:41:06;;;;;;;2.70;0.57;;;13.90;83.60;;;;;;5076591;28;20063;-68
2024/02/23 12:43:32;;;;;;;2.80;0.68;;;14.00;83.90;;;;;;5064912;28;20198;-68
2024/02/23 12:45:57;;;;;;;2.28;0.60;;;13.70;83.00;;;;;;5063255;28;21971;-68
2024/02/23 12:48:23;;;;;;;5.85;0.75;;;13.50;83.70;;;;;;5085362;28;20020;-68
2024/02/23 12:50:49;;;;;;;3.70;0.70;;;13.50;85.40;;;;;;5082658;28;20028;-68